createdAt,value
2023-05-26T00:03:37.495Z,101141.97
2023-05-26T00:08:31.120Z,101156.38
2023-05-26T00:13:25.649Z,101149.84
2023-05-26T00:18:21.962Z,101044.94
2023-05-26T00:23:15.354Z,101154.41
2023-05-26T00:28:08.526Z,101158.72
2023-05-26T00:33:03.704Z,101149.19
2023-05-26T00:37:57.247Z,101159.72
2023-05-26T00:42:50.601Z,101146.38
2023-05-26T00:47:43.866Z,101153.88
2023-05-26T00:52:38.869Z,101149.69
2023-05-26T00:57:32.349Z,101155.69
2023-05-26T01:02:26.776Z,101154.84
2023-05-26T01:07:20.164Z,101153.59
2023-05-26T01:12:22.623Z,101113.25
2023-05-26T01:17:22.501Z,101135.69
2023-05-26T01:22:25.221Z,101159.69
2023-05-26T01:27:34.481Z,101178.41
2023-05-26T01:32:29.590Z,101152.09
2023-05-26T01:37:22.824Z,101160.53
2023-05-26T01:42:30.665Z,101164.69
2023-05-26T01:47:26.709Z,101160.41
2023-05-26T01:52:22.870Z,101156.78
2023-05-26T01:57:17.872Z,101161.47
2023-05-26T02:02:11.267Z,101170.34
2023-05-26T02:07:08.368Z,101154.41
2023-05-26T02:12:04.326Z,101163.84
2023-05-26T02:16:57.847Z,101149.69
2023-05-26T02:21:51.198Z,101156.63
2023-05-26T02:26:46.002Z,101148.69
2023-05-26T02:31:43.296Z,101147.19
2023-05-26T02:36:37.321Z,101143.84
2023-05-26T02:41:30.712Z,101015.53
2023-05-26T02:46:24.020Z,101099.84
2023-05-26T02:51:18.858Z,101145.63
2023-05-26T02:56:12.056Z,101150.38
2023-05-26T03:01:05.793Z,101162.00
2023-05-26T03:06:00.019Z,101155.91
2023-05-26T03:11:10.567Z,101137.47
2023-05-26T03:16:07.387Z,101145.50
2023-05-26T03:21:00.665Z,101155.22
2023-05-26T03:25:55.867Z,101153.72
2023-05-26T03:30:50.812Z,101101.09
2023-05-26T03:35:44.184Z,101157.16
2023-05-26T03:40:37.775Z,101182.25
2023-05-26T03:45:33.720Z,101186.00
2023-05-26T03:50:27.824Z,101192.53
2023-05-26T03:55:21.488Z,101190.03
2023-05-26T04:00:17.456Z,101162.03
2023-05-26T04:05:12.188Z,101202.84
2023-05-26T04:10:07.043Z,101158.44
2023-05-26T04:15:00.222Z,101186.19
2023-05-26T04:19:54.051Z,101067.34
2023-05-26T04:24:48.872Z,101185.22
2023-05-26T04:29:49.723Z,101159.56
2023-05-26T04:35:09.641Z,101209.50
2023-05-26T04:40:08.442Z,101207.97
2023-05-26T04:45:01.864Z,101207.16
2023-05-26T04:49:56.903Z,101214.78
2023-05-26T04:54:52.984Z,101222.41
2023-05-26T04:59:48.532Z,101219.91
2023-05-26T05:04:46.835Z,101234.19
2023-05-26T05:09:40.199Z,101244.16
2023-05-26T05:14:34.152Z,101099.94
2023-05-26T05:19:28.919Z,101233.13
2023-05-26T05:24:22.179Z,101058.72
2023-05-26T05:29:16.673Z,101197.66
2023-05-26T05:34:14.811Z,101231.94
2023-05-26T05:39:11.370Z,101250.56
2023-05-26T05:44:06.334Z,101242.94
2023-05-26T05:48:59.633Z,101253.25
2023-05-26T05:54:00.330Z,101244.59
2023-05-26T05:58:56.822Z,101194.66
2023-05-26T06:03:50.591Z,101254.09
2023-05-26T06:08:45.946Z,101251.34
2023-05-26T06:13:39.878Z,101246.16
2023-05-26T06:18:34.997Z,101193.56
2023-05-26T06:23:30.268Z,101252.09
2023-05-26T06:28:24.097Z,101254.94
2023-05-26T06:33:17.481Z,101242.34
2023-05-26T06:38:12.292Z,101237.97
2023-05-26T06:43:05.591Z,101246.00
2023-05-26T06:47:59.357Z,101235.72
2023-05-26T06:52:53.417Z,101259.94
2023-05-26T07:02:44.544Z,101257.22
2023-05-26T07:07:51.213Z,101249.81
2023-05-26T07:12:44.753Z,101243.63
2023-05-26T07:17:53.698Z,101268.09
2023-05-26T07:22:47.365Z,101259.81
2023-05-26T07:27:49.793Z,101236.31
2023-05-26T07:32:43.277Z,101257.03
2023-05-26T07:37:41.482Z,101263.16
2023-05-26T07:42:35.657Z,101260.78
2023-05-26T07:47:32.567Z,101244.69
2023-05-26T07:52:26.208Z,101253.28
2023-05-26T07:57:29.407Z,101236.22
2023-05-26T08:02:23.488Z,101215.88
2023-05-26T08:07:24.382Z,101249.47
2023-05-26T08:12:17.789Z,101194.94
2023-05-26T08:17:12.414Z,101207.78
2023-05-26T08:22:06.658Z,101249.91
2023-05-26T08:26:59.890Z,101249.13
2023-05-26T08:31:53.300Z,101235.13
2023-05-26T08:36:48.076Z,101244.34
2023-05-26T08:41:49.520Z,101225.56
2023-05-26T08:46:42.868Z,101231.19
2023-05-26T08:51:38.570Z,101230.41
2023-05-26T08:56:35.262Z,101226.13
2023-05-26T09:01:28.687Z,101227.00
2023-05-26T09:06:22.563Z,101229.88
2023-05-26T09:11:23.787Z,101214.75
2023-05-26T09:16:18.481Z,101221.59
2023-05-26T09:21:11.635Z,101206.63
2023-05-26T09:26:08.551Z,101227.03
2023-05-26T09:31:01.706Z,101223.28
2023-05-26T09:35:56.271Z,101222.44
2023-05-26T09:40:50.905Z,101211.53
2023-05-26T09:45:44.175Z,101179.63
2023-05-26T09:50:38.978Z,101213.06
2023-05-26T09:55:33.758Z,101199.47
2023-05-26T10:00:27.947Z,101198.88
2023-05-26T10:05:23.622Z,101178.56
2023-05-26T10:10:18.295Z,101187.13
2023-05-26T10:15:13.308Z,101174.47
2023-05-26T10:20:08.346Z,101172.75
2023-05-26T10:25:05.583Z,101113.53
2023-05-26T10:30:06.285Z,101150.81
2023-05-26T10:35:00.886Z,101166.50
2023-05-26T10:39:54.319Z,101143.13
2023-05-26T10:44:50.136Z,101141.13
2023-05-26T10:49:43.825Z,101134.53
2023-05-26T10:54:38.388Z,101116.00
2023-05-26T10:59:33.237Z,101119.25
2023-05-26T11:04:42.069Z,101113.03
2023-05-26T11:09:35.222Z,101104.47
2023-05-26T11:14:31.384Z,101086.28
2023-05-26T11:19:33.737Z,101091.94
2023-05-26T11:24:27.887Z,101093.75
2023-05-26T11:29:24.196Z,101087.56
2023-05-26T11:34:18.909Z,101080.31
2023-05-26T11:39:12.104Z,101081.38
2023-05-26T11:44:09.568Z,101083.66
2023-05-26T11:49:02.838Z,101063.50
2023-05-26T11:53:58.630Z,101051.53
2023-05-26T11:58:56.823Z,101058.72
2023-05-26T12:03:52.848Z,101041.56
2023-05-26T12:08:53.477Z,100970.78
2023-05-26T12:13:52.608Z,101029.50
2023-05-26T12:18:46.095Z,101023.75
2023-05-26T12:23:39.889Z,101010.41
2023-05-26T12:28:32.989Z,101007.38
2023-05-26T12:33:29.347Z,100997.94
2023-05-26T12:38:23.186Z,100975.53
2023-05-26T12:43:17.808Z,100928.25
2023-05-26T12:48:11.227Z,100991.56
2023-05-26T12:53:05.942Z,100977.59
2023-05-26T12:57:59.216Z,100990.88
2023-05-26T13:02:52.509Z,100975.31
2023-05-26T13:07:45.863Z,100967.75
2023-05-26T13:12:42.685Z,100967.78
2023-05-26T13:17:36.220Z,100961.31
2023-05-26T13:22:29.537Z,100944.50
2023-05-26T13:27:22.745Z,100962.41
2023-05-26T13:32:17.832Z,100962.91
2023-05-26T13:37:11.093Z,100960.22
2023-05-26T13:42:04.997Z,100961.88
2023-05-26T13:46:58.322Z,100955.34
2023-05-26T13:51:53.013Z,100959.94
2023-05-26T13:56:46.804Z,100949.63
2023-05-26T14:01:40.991Z,100948.28
2023-05-26T14:06:37.470Z,100937.13
2023-05-26T14:11:32.789Z,100938.94
2023-05-26T14:16:26.039Z,100933.22
2023-05-26T14:21:42.669Z,100929.94
2023-05-26T14:26:33.910Z,100937.56
2023-05-26T14:31:27.148Z,100927.63
2023-05-26T14:36:20.392Z,100928.94
2023-05-26T14:41:13.600Z,100932.84
2023-05-26T14:46:08.607Z,100913.25
2023-05-26T14:51:02.685Z,100919.41
2023-05-26T14:55:56.167Z,100916.81
2023-05-26T15:00:49.352Z,100887.84
2023-05-26T15:05:44.039Z,100902.00
2023-05-26T15:10:37.317Z,100898.34
2023-05-26T15:15:32.602Z,100906.25
2023-05-26T15:20:26.761Z,100911.09
2023-05-26T15:25:21.523Z,100912.19
2023-05-26T15:35:13.391Z,100894.72
2023-05-26T15:40:08.472Z,100880.72
2023-05-26T15:45:05.849Z,100876.63
2023-05-26T15:49:58.991Z,100869.06
2023-05-26T15:54:52.239Z,100885.53
2023-05-26T15:59:45.593Z,100884.13
2023-05-26T16:04:40.327Z,100895.44
2023-05-26T16:09:33.625Z,100914.53
2023-05-26T16:14:26.871Z,100922.34
2023-05-26T16:19:20.047Z,100916.59
2023-05-26T16:24:14.616Z,100900.09
2023-05-26T16:29:07.798Z,100943.97
2023-05-26T16:34:01.088Z,100941.44
2023-05-26T16:38:54.499Z,100930.56
2023-05-26T16:43:49.417Z,100973.28
2023-05-26T16:48:42.823Z,100990.56
2023-05-26T16:53:36.074Z,100975.13
2023-05-26T16:58:29.344Z,100985.75
2023-05-26T17:03:24.002Z,100992.00
2023-05-26T17:08:17.348Z,100941.59
2023-05-26T17:13:10.885Z,100996.09
2023-05-26T17:18:04.834Z,100984.41
2023-05-26T17:22:59.586Z,100992.78
2023-05-26T17:27:52.821Z,100986.09
2023-05-26T17:32:46.131Z,100973.81
2023-05-26T17:37:39.298Z,101023.25
2023-05-26T17:42:34.153Z,101026.44
2023-05-26T17:47:28.047Z,101033.59
2023-05-26T17:52:21.918Z,101036.59
2023-05-26T17:57:15.161Z,101039.09
2023-05-26T18:02:10.551Z,101024.69
2023-05-26T18:07:03.829Z,101041.91
2023-05-26T18:11:57.017Z,101042.09
2023-05-26T18:16:50.346Z,101032.38
2023-05-26T18:21:45.017Z,101045.13
2023-05-26T18:26:38.193Z,101047.63
2023-05-26T18:31:31.881Z,101071.56
2023-05-26T18:36:25.061Z,101082.53
2023-05-26T18:41:20.027Z,101078.59
2023-05-26T18:46:13.586Z,101088.03
2023-05-26T18:51:07.585Z,101096.72
2023-05-26T18:56:01.068Z,101102.03
2023-05-26T19:00:56.213Z,101113.03
2023-05-26T19:05:52.134Z,101110.06
2023-05-26T19:10:45.362Z,101117.88
2023-05-26T19:15:38.551Z,101111.47
2023-05-26T19:20:33.415Z,101121.44
2023-05-26T19:25:28.236Z,101134.94
2023-05-26T19:30:22.006Z,101114.91
2023-05-26T19:35:16.094Z,101117.25
2023-05-26T19:40:11.436Z,101067.66
2023-05-26T19:45:05.131Z,101118.19
2023-05-26T19:49:59.356Z,101116.81
2023-05-26T19:54:52.550Z,101137.50
2023-05-26T19:59:47.183Z,101108.28
2023-05-26T20:04:40.384Z,101131.13
2023-05-26T20:09:34.253Z,101182.06
2023-05-26T20:14:27.455Z,101113.84
2023-05-26T20:19:22.204Z,101176.50
2023-05-26T20:24:15.601Z,101175.94
2023-05-26T20:29:08.784Z,101176.88
2023-05-26T20:34:01.909Z,101168.47
2023-05-26T20:38:56.773Z,101193.03
2023-05-26T20:43:50.031Z,101206.78
2023-05-26T20:48:44.407Z,101204.97
2023-05-26T20:53:37.743Z,101205.41
2023-05-26T20:58:32.268Z,101218.34
2023-05-26T21:03:25.901Z,101195.09
2023-05-26T21:08:19.257Z,101194.91
2023-05-26T21:13:12.450Z,101180.34
2023-05-26T21:18:07.134Z,101123.41
2023-05-26T21:23:00.289Z,101165.84
2023-05-26T21:27:53.638Z,101144.53
2023-05-26T21:32:46.955Z,101159.25
2023-05-26T21:37:41.583Z,101146.47
2023-05-26T21:42:34.723Z,101165.47
2023-05-26T21:47:27.925Z,101156.19
2023-05-26T21:52:21.141Z,101081.91
2023-05-26T21:57:15.812Z,101144.00
2023-05-26T22:02:09.200Z,101150.38
2023-05-26T22:07:02.383Z,101158.19
2023-05-26T22:11:55.819Z,101150.53
2023-05-26T22:16:50.463Z,101129.88
2023-05-26T22:21:43.605Z,101124.88
2023-05-26T22:26:36.784Z,101115.31
2023-05-26T22:31:29.962Z,101103.25
2023-05-26T22:36:24.511Z,101080.25
2023-05-26T22:41:17.776Z,101109.81
2023-05-26T22:46:11.082Z,101111.03
2023-05-26T22:51:04.563Z,101047.44
2023-05-26T22:56:04.836Z,101075.41
2023-05-26T23:01:05.834Z,101084.97
2023-05-26T23:05:59.235Z,101098.41
2023-05-26T23:10:52.615Z,101093.84
2023-05-26T23:15:47.092Z,101070.00
2023-05-26T23:20:40.292Z,101088.28
2023-05-26T23:25:33.585Z,101044.91
2023-05-26T23:30:27.877Z,101088.44
2023-05-26T23:35:22.393Z,101091.06
2023-05-26T23:40:15.596Z,101094.56
2023-05-26T23:45:10.023Z,101100.09
2023-05-26T23:50:03.636Z,100987.41
2023-05-26T23:54:58.195Z,101088.44
2023-05-26T23:59:51.392Z,101025.66
